Heat Index [SAI AWOS/ASOS Display]_________FAA Disclaimer: "Not for use in aviation at this time______________" Untitled Document
Hamilton Municipal Airport NY (VGC)
000
19:13
17/06/27
00
N/A
N/A
29.97
N/A
1134
53(F), 12(C)
47(F), 8(C)
53 F
77%
SCT028 BKN060 OVC080
10
N/A
P0001
N/A
19:13 zulu Wind Calm, Altimeter 29.97
METAR KVGC 271913Z AUTO 00000KT 10SM SCT028 BKN060 OVC080 12/08 A2997 A02 P0001
METAR:
FAA Disclaimer--Advisory Use ONLY, not for flight info--
INFO:
Wind Direction:
Wind Speed:
Wind Gust:
Wind Variable:
Altimeter:
Dens Alt:
Elev:
Temp:
Dwpt:
Wind Chill
Rel Humidity:
Ceiling:
Visibility:
Prsnt Wea:
PCPN:
Remarks:
How to read the WebPage